sensor_id;sensor_type;location;lat;lon;timestamp;pressure;altitude;pressure_sealevel;temperature;humidity
4471;BME280;2248;42.698;23.292;2022-10-31T00:02:04;95645.25;;;12.75;100.00
4471;BME280;2248;42.698;23.292;2022-10-31T00:04:30;95664.63;;;12.73;100.00
4471;BME280;2248;42.698;23.292;2022-10-31T00:06:55;95650.78;;;12.64;100.00
4471;BME280;2248;42.698;23.292;2022-10-31T00:09:20;95645.84;;;12.55;100.00
4471;BME280;2248;42.698;23.292;2022-10-31T00:11:46;95658.47;;;12.69;100.00
4471;BME280;2248;42.698;23.292;2022-10-31T00:14:11;95649.72;;;12.54;100.00
4471;BME280;2248;42.698;23.292;2022-10-31T00:16:37;95661.97;;;12.70;100.00
4471;BME280;2248;42.698;23.292;2022-10-31T00:19:04;95641.19;;;12.56;100.00
4471;BME280;2248;42.698;23.292;2022-10-31T00:21:32;95665.50;;;12.63;100.00
4471;BME280;2248;42.698;23.292;2022-10-31T00:23:59;95667.94;;;12.54;100.00
4471;BME280;2248;42.698;23.292;2022-10-31T00:26:27;95655.66;;;12.42;100.00
4471;BME280;2248;42.698;23.292;2022-10-31T00:28:53;95652.03;;;12.56;100.00
4471;BME280;2248;42.698;23.292;2022-10-31T00:31:18;95647.75;;;12.55;100.00
4471;BME280;2248;42.698;23.292;2022-10-31T00:33:44;95650.19;;;12.46;100.00
4471;BME280;2248;42.698;23.292;2022-10-31T00:36:15;95657.97;;;12.44;100.00
4471;BME280;2248;42.698;23.292;2022-10-31T00:38:43;95656.44;;;12.39;100.00
4471;BME280;2248;42.698;23.292;2022-10-31T00:41:09;95651.06;;;12.35;100.00
4471;BME280;2248;42.698;23.292;2022-10-31T00:43:35;95652.25;;;12.31;100.00
4471;BME280;2248;42.698;23.292;2022-10-31T00:46:00;95643.81;;;12.21;100.00
4471;BME280;2248;42.698;23.292;2022-10-31T00:48:26;95650.41;;;12.20;100.00
4471;BME280;2248;42.698;23.292;2022-10-31T00:50:51;95635.41;;;12.09;100.00
4471;BME280;2248;42.698;23.292;2022-10-31T00:53:17;95638.50;;;12.07;100.00
4471;BME280;2248;42.698;23.292;2022-10-31T00:55:42;95645.00;;;12.17;100.00
4471;BME280;2248;42.698;23.292;2022-10-31T00:58:07;95654.69;;;12.18;100.00
4471;BME280;2248;42.698;23.292;2022-10-31T01:00:33;95648.09;;;12.19;100.00
4471;BME280;2248;42.698;23.292;2022-10-31T01:02:59;95657.75;;;12.24;100.00
4471;BME280;2248;42.698;23.292;2022-10-31T01:05:24;95655.03;;;12.20;100.00
4471;BME280;2248;42.698;23.292;2022-10-31T01:07:49;95653.56;;;12.12;100.00
4471;BME280;2248;42.698;23.292;2022-10-31T01:10:15;95664.81;;;12.10;100.00
4471;BME280;2248;42.698;23.292;2022-10-31T01:12:43;95661.72;;;12.08;100.00
4471;BME280;2248;42.698;23.292;2022-10-31T01:15:11;95655.94;;;12.02;100.00
4471;BME280;2248;42.698;23.292;2022-10-31T01:17:37;95662.47;;;12.12;100.00
4471;BME280;2248;42.698;23.292;2022-10-31T01:20:04;95666.28;;;12.18;100.00
4471;BME280;2248;42.698;23.292;2022-10-31T01:22:30;95658.50;;;12.24;100.00
4471;BME280;2248;42.698;23.292;2022-10-31T01:24:56;95668.91;;;12.29;100.00
4471;BME280;2248;42.698;23.292;2022-10-31T01:27:21;95661.06;;;12.42;100.00
4471;BME280;2248;42.698;23.292;2022-10-31T01:29:47;95654.41;;;12.50;100.00
4471;BME280;2248;42.698;23.292;2022-10-31T01:32:12;95658.88;;;12.68;100.00
4471;BME280;2248;42.698;23.292;2022-10-31T01:34:38;95662.25;;;12.79;100.00
4471;BME280;2248;42.698;23.292;2022-10-31T01:37:03;95663.31;;;12.89;100.00
4471;BME280;2248;42.698;23.292;2022-10-31T01:39:28;95660.56;;;12.93;100.00
4471;BME280;2248;42.698;23.292;2022-10-31T01:41:54;95650.56;;;12.86;100.00
4471;BME280;2248;42.698;23.292;2022-10-31T01:47:05;95664.06;;;12.93;100.00
4471;BME280;2248;42.698;23.292;2022-10-31T01:49:46;95664.84;;;12.90;100.00
4471;BME280;2248;42.698;23.292;2022-10-31T01:52:22;95662.50;;;12.92;100.00
4471;BME280;2248;42.698;23.292;2022-10-31T01:55:15;95667.03;;;13.02;100.00
4471;BME280;2248;42.698;23.292;2022-10-31T01:57:42;95668.53;;;13.07;100.00
4471;BME280;2248;42.698;23.292;2022-10-31T02:00:11;95667.31;;;13.12;100.00
4471;BME280;2248;42.698;23.292;2022-10-31T02:02:37;95661.88;;;13.12;100.00
4471;BME280;2248;42.698;23.292;2022-10-31T02:05:06;95649.88;;;13.13;100.00
4471;BME280;2248;42.698;23.292;2022-10-31T02:10:16;95655.56;;;13.22;100.00
4471;BME280;2248;42.698;23.292;2022-10-31T02:12:42;95649.69;;;13.27;100.00
4471;BME280;2248;42.698;23.292;2022-10-31T02:15:09;95652.75;;;13.29;100.00
4471;BME280;2248;42.698;23.292;2022-10-31T02:17:35;95646.09;;;13.37;100.00
4471;BME280;2248;42.698;23.292;2022-10-31T02:20:22;95652.91;;;13.53;100.00
4471;BME280;2248;42.698;23.292;2022-10-31T02:23:20;95666.41;;;13.56;100.00
4471;BME280;2248;42.698;23.292;2022-10-31T02:26:20;95664.50;;;13.53;100.00
4471;BME280;2248;42.698;23.292;2022-10-31T02:34:09;95670.59;;;13.61;100.00
4471;BME280;2248;42.698;23.292;2022-10-31T02:39:53;95678.75;;;13.61;100.00
4471;BME280;2248;42.698;23.292;2022-10-31T02:42:38;95685.34;;;13.60;100.00
4471;BME280;2248;42.698;23.292;2022-10-31T02:45:10;95687.38;;;13.56;100.00
4471;BME280;2248;42.698;23.292;2022-10-31T02:47:37;95696.41;;;13.46;100.00
4471;BME280;2248;42.698;23.292;2022-10-31T02:50:08;95693.06;;;13.34;100.00
4471;BME280;2248;42.698;23.292;2022-10-31T02:52:36;95692.78;;;13.21;100.00
4471;BME280;2248;42.698;23.292;2022-10-31T02:57:54;95694.44;;;13.12;100.00
4471;BME280;2248;42.698;23.292;2022-10-31T03:00:21;95696.81;;;13.10;100.00
4471;BME280;2248;42.698;23.292;2022-10-31T03:03:11;95696.75;;;13.13;100.00
4471;BME280;2248;42.698;23.292;2022-10-31T03:05:55;95696.75;;;13.13;100.00
4471;BME280;2248;42.698;23.292;2022-10-31T03:08:35;95704.16;;;13.09;100.00
4471;BME280;2248;42.698;23.292;2022-10-31T03:11:07;95685.00;;;12.89;100.00
4471;BME280;2248;42.698;23.292;2022-10-31T03:13:50;95705.09;;;12.95;100.00
4471;BME280;2248;42.698;23.292;2022-10-31T03:16:47;95703.25;;;12.85;100.00
4471;BME280;2248;42.698;23.292;2022-10-31T03:19:17;95702.59;;;12.73;100.00
4471;BME280;2248;42.698;23.292;2022-10-31T03:21:56;95704.22;;;12.64;100.00
4471;BME280;2248;42.698;23.292;2022-10-31T03:24:28;95692.28;;;12.58;100.00
4471;BME280;2248;42.698;23.292;2022-10-31T03:26:58;95705.59;;;12.41;100.00
4471;BME280;2248;42.698;23.292;2022-10-31T03:29:28;95707.25;;;12.24;100.00
4471;BME280;2248;42.698;23.292;2022-10-31T03:32:08;95706.16;;;12.14;100.00
4471;BME280;2248;42.698;23.292;2022-10-31T03:34:37;95704.75;;;11.95;100.00
4471;BME280;2248;42.698;23.292;2022-10-31T03:37:06;95715.53;;;12.02;100.00
4471;BME280;2248;42.698;23.292;2022-10-31T03:39:33;95710.94;;;11.92;100.00
4471;BME280;2248;42.698;23.292;2022-10-31T03:42:07;95717.94;;;11.93;100.00
4471;BME280;2248;42.698;23.292;2022-10-31T03:44:34;95731.44;;;11.90;100.00
4471;BME280;2248;42.698;23.292;2022-10-31T03:47:02;95720.69;;;11.79;100.00
4471;BME280;2248;42.698;23.292;2022-10-31T03:49:28;95718.78;;;11.76;100.00
4471;BME280;2248;42.698;23.292;2022-10-31T03:51:58;95732.66;;;11.81;100.00
4471;BME280;2248;42.698;23.292;2022-10-31T03:54:27;95731.16;;;11.77;100.00
4471;BME280;2248;42.698;23.292;2022-10-31T03:56:59;95736.19;;;11.71;100.00
4471;BME280;2248;42.698;23.292;2022-10-31T03:59:32;95733.91;;;11.62;100.00
4471;BME280;2248;42.698;23.292;2022-10-31T04:02:08;95748.25;;;11.56;100.00
4471;BME280;2248;42.698;23.292;2022-10-31T04:04:36;95749.81;;;11.49;100.00
4471;BME280;2248;42.698;23.292;2022-10-31T04:07:04;95732.81;;;11.45;100.00
4471;BME280;2248;42.698;23.292;2022-10-31T04:09:33;95728.94;;;11.50;100.00
4471;BME280;2248;42.698;23.292;2022-10-31T04:12:00;95728.91;;;11.61;100.00
4471;BME280;2248;42.698;23.292;2022-10-31T04:14:29;95745.81;;;11.79;100.00
4471;BME280;2248;42.698;23.292;2022-10-31T04:16:56;95743.81;;;11.91;100.00
4471;BME280;2248;42.698;23.292;2022-10-31T04:19:22;95745.00;;;11.93;100.00
4471;BME280;2248;42.698;23.292;2022-10-31T04:21:47;95750.78;;;11.95;100.00
4471;BME280;2248;42.698;23.292;2022-10-31T04:24:12;95743.44;;;11.96;100.00
4471;BME280;2248;42.698;23.292;2022-10-31T04:26:38;95742.25;;;12.00;100.00
4471;BME280;2248;42.698;23.292;2022-10-31T04:29:03;95754.19;;;12.10;100.00
4471;BME280;2248;42.698;23.292;2022-10-31T04:31:29;95743.31;;;12.14;100.00
4471;BME280;2248;42.698;23.292;2022-10-31T04:33:54;95752.22;;;12.14;100.00
4471;BME280;2248;42.698;23.292;2022-10-31T04:36:20;95736.41;;;12.06;100.00
4471;BME280;2248;42.698;23.292;2022-10-31T04:38:45;95726.06;;;11.93;100.00
4471;BME280;2248;42.698;23.292;2022-10-31T04:41:11;95729.16;;;11.81;100.00
4471;BME280;2248;42.698;23.292;2022-10-31T04:43:36;95738.44;;;11.94;100.00
4471;BME280;2248;42.698;23.292;2022-10-31T04:46:02;95728.31;;;11.98;100.00
4471;BME280;2248;42.698;23.292;2022-10-31T04:48:28;95730.69;;;11.93;100.00
4471;BME280;2248;42.698;23.292;2022-10-31T04:50:59;95733.00;;;11.94;100.00
4471;BME280;2248;42.698;23.292;2022-10-31T04:53:24;95757.34;;;12.01;100.00
4471;BME280;2248;42.698;23.292;2022-10-31T04:55:50;95758.50;;;12.00;100.00
4471;BME280;2248;42.698;23.292;2022-10-31T04:58:15;95705.72;;;11.56;100.00
4471;BME280;2248;42.698;23.292;2022-10-31T05:00:40;95726.56;;;11.66;100.00
4471;BME280;2248;42.698;23.292;2022-10-31T05:03:06;95755.94;;;11.68;100.00
4471;BME280;2248;42.698;23.292;2022-10-31T05:05:31;95762.91;;;11.62;100.00
4471;BME280;2248;42.698;23.292;2022-10-31T05:07:57;95724.03;;;11.23;100.00
4471;BME280;2248;42.698;23.292;2022-10-31T05:10:25;95777.66;;;11.50;100.00
4471;BME280;2248;42.698;23.292;2022-10-31T05:12:53;95752.97;;;11.33;100.00
4471;BME280;2248;42.698;23.292;2022-10-31T05:15:21;95767.22;;;11.48;100.00
4471;BME280;2248;42.698;23.292;2022-10-31T05:17:47;95761.06;;;11.41;100.00
4471;BME280;2248;42.698;23.292;2022-10-31T05:20:15;95768.75;;;11.46;100.00
4471;BME280;2248;42.698;23.292;2022-10-31T05:22:47;95757.97;;;11.39;100.00
4471;BME280;2248;42.698;23.292;2022-10-31T05:25:13;95759.13;;;11.41;100.00
4471;BME280;2248;42.698;23.292;2022-10-31T05:27:41;95774.19;;;11.42;100.00
4471;BME280;2248;42.698;23.292;2022-10-31T05:30:07;95782.31;;;11.42;100.00
4471;BME280;2248;42.698;23.292;2022-10-31T05:32:47;95768.84;;;11.28;100.00
4471;BME280;2248;42.698;23.292;2022-10-31T05:35:15;95788.13;;;11.37;100.00
4471;BME280;2248;42.698;23.292;2022-10-31T05:37:41;95795.09;;;11.34;100.00
4471;BME280;2248;42.698;23.292;2022-10-31T05:40:09;95789.31;;;11.25;100.00
4471;BME280;2248;42.698;23.292;2022-10-31T05:42:35;95788.53;;;11.28;100.00
4471;BME280;2248;42.698;23.292;2022-10-31T05:45:00;95789.69;;;11.34;100.00
4471;BME280;2248;42.698;23.292;2022-10-31T05:47:27;95790.41;;;11.49;100.00
4471;BME280;2248;42.698;23.292;2022-10-31T05:49:52;95763.34;;;11.49;100.00
4471;BME280;2248;42.698;23.292;2022-10-31T05:52:18;95797.25;;;11.83;100.00
4471;BME280;2248;42.698;23.292;2022-10-31T05:54:44;95784.47;;;11.87;100.00
4471;BME280;2248;42.698;23.292;2022-10-31T05:57:09;95780.97;;;11.97;100.00
4471;BME280;2248;42.698;23.292;2022-10-31T05:59:34;95792.03;;;12.25;100.00
4471;BME280;2248;42.698;23.292;2022-10-31T06:02:00;95810.47;;;12.44;100.00
4471;BME280;2248;42.698;23.292;2022-10-31T06:04:25;95782.59;;;12.47;100.00
4471;BME280;2248;42.698;23.292;2022-10-31T06:06:51;95816.09;;;12.71;100.00
4471;BME280;2248;42.698;23.292;2022-10-31T06:09:16;95807.47;;;12.87;100.00
4471;BME280;2248;42.698;23.292;2022-10-31T06:11:41;95812.06;;;12.90;100.00
4471;BME280;2248;42.698;23.292;2022-10-31T06:14:07;95819.00;;;12.95;100.00
4471;BME280;2248;42.698;23.292;2022-10-31T06:16:32;95816.59;;;13.04;100.00
4471;BME280;2248;42.698;23.292;2022-10-31T06:18:58;95828.47;;;13.21;100.00
4471;BME280;2248;42.698;23.292;2022-10-31T06:21:24;95830.00;;;13.22;100.00
4471;BME280;2248;42.698;23.292;2022-10-31T06:23:49;95830.34;;;13.28;100.00
4471;BME280;2248;42.698;23.292;2022-10-31T06:26:15;95824.47;;;13.33;100.00
4471;BME280;2248;42.698;23.292;2022-10-31T06:28:40;95848.13;;;13.36;100.00
4471;BME280;2248;42.698;23.292;2022-10-31T06:31:06;95836.09;;;13.34;100.00
4471;BME280;2248;42.698;23.292;2022-10-31T06:33:32;95831.75;;;13.43;100.00
4471;BME280;2248;42.698;23.292;2022-10-31T06:35:58;95843.63;;;13.57;100.00
4471;BME280;2248;42.698;23.292;2022-10-31T06:38:25;95842.41;;;13.65;100.00
4471;BME280;2248;42.698;23.292;2022-10-31T06:41:04;95851.94;;;13.81;100.00
4471;BME280;2248;42.698;23.292;2022-10-31T06:43:30;95848.03;;;13.82;100.00
4471;BME280;2248;42.698;23.292;2022-10-31T06:45:56;95849.56;;;13.86;100.00
4471;BME280;2248;42.698;23.292;2022-10-31T06:48:22;95849.16;;;13.88;100.00
4471;BME280;2248;42.698;23.292;2022-10-31T06:50:47;95852.09;;;13.66;100.00
4471;BME280;2248;42.698;23.292;2022-10-31T06:53:13;95839.81;;;13.54;100.00
4471;BME280;2248;42.698;23.292;2022-10-31T06:55:40;95847.09;;;13.61;100.00
4471;BME280;2248;42.698;23.292;2022-10-31T06:58:05;95836.56;;;13.67;100.00
4471;BME280;2248;42.698;23.292;2022-10-31T07:00:31;95847.28;;;13.81;100.00
4471;BME280;2248;42.698;23.292;2022-10-31T07:02:59;95852.66;;;13.85;100.00
4471;BME280;2248;42.698;23.292;2022-10-31T07:05:25;95849.34;;;13.70;100.00
4471;BME280;2248;42.698;23.292;2022-10-31T07:07:56;95859.34;;;13.76;100.00
4471;BME280;2248;42.698;23.292;2022-10-31T07:10:23;95853.91;;;13.76;100.00
4471;BME280;2248;42.698;23.292;2022-10-31T07:12:54;95861.69;;;13.74;100.00
4471;BME280;2248;42.698;23.292;2022-10-31T07:15:19;95855.47;;;13.77;100.00
4471;BME280;2248;42.698;23.292;2022-10-31T07:17:45;95846.72;;;13.93;100.00
4471;BME280;2248;42.698;23.292;2022-10-31T07:20:10;95851.63;;;14.06;100.00
4471;BME280;2248;42.698;23.292;2022-10-31T07:22:36;95846.44;;;14.19;100.00
4471;BME280;2248;42.698;23.292;2022-10-31T07:25:02;95849.09;;;14.22;100.00
4471;BME280;2248;42.698;23.292;2022-10-31T07:27:28;95844.25;;;14.37;100.00
4471;BME280;2248;42.698;23.292;2022-10-31T07:29:53;95821.22;;;14.45;100.00
4471;BME280;2248;42.698;23.292;2022-10-31T07:32:19;95831.69;;;14.74;100.00
4471;BME280;2248;42.698;23.292;2022-10-31T07:34:44;95830.41;;;14.82;100.00
4471;BME280;2248;42.698;23.292;2022-10-31T07:37:10;95839.81;;;15.02;100.00
4471;BME280;2248;42.698;23.292;2022-10-31T07:39:35;95833.03;;;15.13;100.00
4471;BME280;2248;42.698;23.292;2022-10-31T07:42:00;95831.22;;;15.27;100.00
4471;BME280;2248;42.698;23.292;2022-10-31T07:44:26;95828.25;;;15.41;100.00
4471;BME280;2248;42.698;23.292;2022-10-31T07:46:51;95820.38;;;15.47;100.00
4471;BME280;2248;42.698;23.292;2022-10-31T07:49:17;95832.41;;;15.69;100.00
4471;BME280;2248;42.698;23.292;2022-10-31T07:51:42;95818.63;;;15.77;100.00
4471;BME280;2248;42.698;23.292;2022-10-31T07:54:07;95825.25;;;15.99;100.00
4471;BME280;2248;42.698;23.292;2022-10-31T07:56:33;95811.34;;;15.94;100.00
4471;BME280;2248;42.698;23.292;2022-10-31T07:58:58;95824.00;;;16.20;100.00
4471;BME280;2248;42.698;23.292;2022-10-31T08:01:24;95829.66;;;16.30;100.00
4471;BME280;2248;42.698;23.292;2022-10-31T08:03:49;95826.69;;;16.41;100.00
4471;BME280;2248;42.698;23.292;2022-10-31T08:06:15;95832.34;;;16.50;100.00
4471;BME280;2248;42.698;23.292;2022-10-31T08:08:40;95821.69;;;16.55;100.00
4471;BME280;2248;42.698;23.292;2022-10-31T08:11:06;95836.53;;;16.54;100.00
4471;BME280;2248;42.698;23.292;2022-10-31T08:13:31;95839.97;;;16.75;100.00
4471;BME280;2248;42.698;23.292;2022-10-31T08:15:57;95833.41;;;16.89;100.00
4471;BME280;2248;42.698;23.292;2022-10-31T08:18:28;95832.00;;;17.01;100.00
4471;BME280;2248;42.698;23.292;2022-10-31T08:20:54;95837.88;;;17.16;100.00
4471;BME280;2248;42.698;23.292;2022-10-31T08:23:20;95832.47;;;17.29;100.00
4471;BME280;2248;42.698;23.292;2022-10-31T08:25:45;95841.50;;;17.42;100.00
4471;BME280;2248;42.698;23.292;2022-10-31T08:28:13;95815.84;;;17.52;100.00
4471;BME280;2248;42.698;23.292;2022-10-31T08:30:39;95835.72;;;17.82;100.00
4471;BME280;2248;42.698;23.292;2022-10-31T08:33:09;95836.03;;;18.01;100.00
4471;BME280;2248;42.698;23.292;2022-10-31T08:35:36;95827.31;;;18.06;100.00
4471;BME280;2248;42.698;23.292;2022-10-31T08:38:01;95828.63;;;18.14;100.00
4471;BME280;2248;42.698;23.292;2022-10-31T08:40:28;95805.44;;;18.19;100.00
4471;BME280;2248;42.698;23.292;2022-10-31T08:45:27;95823.06;;;18.43;100.00
4471;BME280;2248;42.698;23.292;2022-10-31T08:47:57;95815.97;;;18.46;100.00
4471;BME280;2248;42.698;23.292;2022-10-31T08:50:23;95814.22;;;18.65;100.00
4471;BME280;2248;42.698;23.292;2022-10-31T08:52:48;95815.84;;;18.75;100.00
4471;BME280;2248;42.698;23.292;2022-10-31T08:55:14;95829.56;;;18.88;100.00
4471;BME280;2248;42.698;23.292;2022-10-31T08:57:39;95826.50;;;18.99;100.00
4471;BME280;2248;42.698;23.292;2022-10-31T09:00:05;95820.88;;;19.15;100.00
4471;BME280;2248;42.698;23.292;2022-10-31T09:02:31;95822.25;;;19.33;100.00
4471;BME280;2248;42.698;23.292;2022-10-31T09:04:56;95826.09;;;19.58;100.00
4471;BME280;2248;42.698;23.292;2022-10-31T09:07:22;95827.56;;;19.72;100.00
4471;BME280;2248;42.698;23.292;2022-10-31T09:09:47;95816.59;;;20.07;100.00
4471;BME280;2248;42.698;23.292;2022-10-31T09:12:13;95823.00;;;21.44;97.96
4471;BME280;2248;42.698;23.292;2022-10-31T09:14:38;95815.47;;;22.19;91.12
4471;BME280;2248;42.698;23.292;2022-10-31T09:17:03;95825.47;;;22.92;83.50
4471;BME280;2248;42.698;23.292;2022-10-31T09:19:29;95809.53;;;24.74;77.71
4471;BME280;2248;42.698;23.292;2022-10-31T09:21:54;95821.72;;;26.95;65.54
4471;BME280;2248;42.698;23.292;2022-10-31T09:24:21;95808.56;;;28.33;55.88
4471;BME280;2248;42.698;23.292;2022-10-31T09:26:47;95822.06;;;29.50;49.78
4471;BME280;2248;42.698;23.292;2022-10-31T09:29:12;95822.78;;;30.51;44.63
4471;BME280;2248;42.698;23.292;2022-10-31T09:31:38;95810.06;;;30.56;42.66
4471;BME280;2248;42.698;23.292;2022-10-31T09:34:03;95816.13;;;30.24;43.43
4471;BME280;2248;42.698;23.292;2022-10-31T09:36:29;95810.19;;;29.44;44.10
4471;BME280;2248;42.698;23.292;2022-10-31T09:38:54;95801.16;;;29.27;46.22
4471;BME280;2248;42.698;23.292;2022-10-31T09:48:02;95801.50;;;28.83;49.10
4471;BME280;2248;42.698;23.292;2022-10-31T09:50:47;95790.38;;;28.49;50.93
4471;BME280;2248;42.698;23.292;2022-10-31T09:56:17;95797.41;;;27.94;52.17
4471;BME280;2248;42.698;23.292;2022-10-31T09:58:55;95792.25;;;27.53;53.49
4471;BME280;2248;42.698;23.292;2022-10-31T10:03:58;95783.88;;;25.97;62.98
4471;BME280;2248;42.698;23.292;2022-10-31T10:06:33;95754.66;;;25.43;65.65
4471;BME280;2248;42.698;23.292;2022-10-31T10:09:00;95766.38;;;25.17;66.74
4471;BME280;2248;42.698;23.292;2022-10-31T10:11:52;95775.16;;;24.95;68.27
4471;BME280;2248;42.698;23.292;2022-10-31T10:19:41;95755.97;;;24.21;70.44
4471;BME280;2248;42.698;23.292;2022-10-31T10:22:16;95756.38;;;24.13;70.67
4471;BME280;2248;42.698;23.292;2022-10-31T10:33:19;95741.16;;;24.03;71.14
4471;BME280;2248;42.698;23.292;2022-10-31T10:35:58;95735.22;;;23.95;70.74
4471;BME280;2248;42.698;23.292;2022-10-31T10:40:55;95732.75;;;23.97;70.88
4471;BME280;2248;42.698;23.292;2022-10-31T10:43:29;95718.09;;;24.06;70.18
4471;BME280;2248;42.698;23.292;2022-10-31T10:54:56;95716.19;;;24.12;68.99
4471;BME280;2248;42.698;23.292;2022-10-31T10:57:50;95718.47;;;24.14;68.85
4471;BME280;2248;42.698;23.292;2022-10-31T11:00:29;95721.88;;;24.24;67.64
4471;BME280;2248;42.698;23.292;2022-10-31T11:02:55;95724.72;;;24.29;67.26
4471;BME280;2248;42.698;23.292;2022-10-31T11:07:50;95673.97;;;23.91;69.04
4471;BME280;2248;42.698;23.292;2022-10-31T11:10:16;95712.59;;;24.42;67.97
4471;BME280;2248;42.698;23.292;2022-10-31T11:12:45;95704.25;;;24.57;65.74
4471;BME280;2248;42.698;23.292;2022-10-31T11:15:24;95698.72;;;24.57;65.42
4471;BME280;2248;42.698;23.292;2022-10-31T11:17:52;95700.63;;;24.65;64.42
4471;BME280;2248;42.698;23.292;2022-10-31T11:22:47;95666.75;;;24.29;66.78
4471;BME280;2248;42.698;23.292;2022-10-31T11:25:26;95694.63;;;24.31;66.95
4471;BME280;2248;42.698;23.292;2022-10-31T11:28:03;95690.66;;;24.53;65.68
4471;BME280;2248;42.698;23.292;2022-10-31T11:30:30;95694.66;;;24.67;64.33
4471;BME280;2248;42.698;23.292;2022-10-31T11:32:56;95680.97;;;24.78;63.18
4471;BME280;2248;42.698;23.292;2022-10-31T11:35:23;95695.91;;;24.86;61.30
4471;BME280;2248;42.698;23.292;2022-10-31T11:37:52;95681.66;;;24.94;61.16
4471;BME280;2248;42.698;23.292;2022-10-31T11:40:26;95684.03;;;24.80;62.79
4471;BME280;2248;42.698;23.292;2022-10-31T11:42:55;95671.06;;;24.51;63.89
4471;BME280;2248;42.698;23.292;2022-10-31T11:47:49;95681.44;;;25.65;58.89
4471;BME280;2248;42.698;23.292;2022-10-31T11:50:27;95668.97;;;25.81;57.10
4471;BME280;2248;42.698;23.292;2022-10-31T11:52:53;95679.16;;;26.27;55.22
4471;BME280;2248;42.698;23.292;2022-10-31T11:57:55;95664.19;;;27.11;50.99
4471;BME280;2248;42.698;23.292;2022-10-31T12:00:28;95667.75;;;27.17;51.54
4471;BME280;2248;42.698;23.292;2022-10-31T12:05:42;95667.56;;;25.91;54.74
4471;BME280;2248;42.698;23.292;2022-10-31T12:08:11;95640.06;;;25.87;53.86
4471;BME280;2248;42.698;23.292;2022-10-31T12:13:33;95640.53;;;26.12;52.59
4471;BME280;2248;42.698;23.292;2022-10-31T12:16:07;95657.69;;;26.16;52.96
4471;BME280;2248;42.698;23.292;2022-10-31T12:24:16;95647.03;;;26.03;54.21
4471;BME280;2248;42.698;23.292;2022-10-31T12:30:02;95658.75;;;25.92;54.57
4471;BME280;2248;42.698;23.292;2022-10-31T12:36:00;95658.81;;;26.36;52.04
4471;BME280;2248;42.698;23.292;2022-10-31T12:41:47;95640.75;;;25.45;57.07
4471;BME280;2248;42.698;23.292;2022-10-31T12:49:42;95643.94;;;24.91;65.46
4471;BME280;2248;42.698;23.292;2022-10-31T12:57:59;95643.47;;;24.71;63.65
4471;BME280;2248;42.698;23.292;2022-10-31T13:00:27;95649.31;;;24.59;64.57
4471;BME280;2248;42.698;23.292;2022-10-31T13:03:04;95643.97;;;24.55;65.59
4471;BME280;2248;42.698;23.292;2022-10-31T13:05:41;95623.16;;;24.39;65.34
4471;BME280;2248;42.698;23.292;2022-10-31T13:08:11;95643.56;;;24.42;66.91
4471;BME280;2248;42.698;23.292;2022-10-31T13:10:49;95656.03;;;24.37;65.74
4471;BME280;2248;42.698;23.292;2022-10-31T13:16:07;95639.69;;;24.33;65.66
4471;BME280;2248;42.698;23.292;2022-10-31T13:18:47;95635.88;;;24.31;65.15
4471;BME280;2248;42.698;23.292;2022-10-31T13:21:19;95638.41;;;24.14;67.66
4471;BME280;2248;42.698;23.292;2022-10-31T13:23:49;95636.81;;;24.07;68.03
4471;BME280;2248;42.698;23.292;2022-10-31T13:26:24;95630.91;;;23.99;67.46
4471;BME280;2248;42.698;23.292;2022-10-31T13:31:34;95625.69;;;24.01;66.92
4471;BME280;2248;42.698;23.292;2022-10-31T13:34:10;95636.44;;;23.99;67.85
4471;BME280;2248;42.698;23.292;2022-10-31T13:36:43;95629.31;;;23.93;67.92
4471;BME280;2248;42.698;23.292;2022-10-31T13:39:21;95637.88;;;23.95;67.40
4471;BME280;2248;42.698;23.292;2022-10-31T13:41:55;95628.56;;;23.92;67.30
4471;BME280;2248;42.698;23.292;2022-10-31T13:44:27;95627.41;;;23.84;69.60
4471;BME280;2248;42.698;23.292;2022-10-31T13:46:54;95617.44;;;23.72;68.65
4471;BME280;2248;42.698;23.292;2022-10-31T13:49:37;95632.78;;;23.58;72.84
4471;BME280;2248;42.698;23.292;2022-10-31T13:52:14;95603.00;;;23.32;73.65
4471;BME280;2248;42.698;23.292;2022-10-31T13:54:50;95637.41;;;23.37;74.29
4471;BME280;2248;42.698;23.292;2022-10-31T13:57:32;95630.84;;;23.34;74.20
4471;BME280;2248;42.698;23.292;2022-10-31T14:00:42;95624.22;;;23.26;71.91
4471;BME280;2248;42.698;23.292;2022-10-31T14:02:52;95633.44;;;23.38;70.72
4471;BME280;2248;42.698;23.292;2022-10-31T14:05:23;95638.25;;;23.43;69.94
4471;BME280;2248;42.698;23.292;2022-10-31T14:07:51;95637.63;;;23.48;69.50
4471;BME280;2248;42.698;23.292;2022-10-31T14:10:31;95633.91;;;23.51;69.65
4471;BME280;2248;42.698;23.292;2022-10-31T14:13:08;95639.41;;;23.51;68.14
4471;BME280;2248;42.698;23.292;2022-10-31T14:15:42;95645.78;;;23.57;68.80
4471;BME280;2248;42.698;23.292;2022-10-31T14:18:21;95645.78;;;23.57;68.59
4471;BME280;2248;42.698;23.292;2022-10-31T14:20:48;95634.84;;;23.48;68.64
4471;BME280;2248;42.698;23.292;2022-10-31T14:23:36;95648.53;;;23.42;69.14
4471;BME280;2248;42.698;23.292;2022-10-31T14:28:56;95649.78;;;23.26;68.51
4471;BME280;2248;42.698;23.292;2022-10-31T14:36:47;95646.94;;;22.24;78.78
4471;BME280;2248;42.698;23.292;2022-10-31T14:39:23;95642.53;;;22.17;77.87
4471;BME280;2248;42.698;23.292;2022-10-31T14:47:39;95646.75;;;22.03;78.99
4471;BME280;2248;42.698;23.292;2022-10-31T14:53:01;95645.78;;;21.73;79.04
4471;BME280;2248;42.698;23.292;2022-10-31T14:55:28;95650.38;;;21.67;81.71
4471;BME280;2248;42.698;23.292;2022-10-31T14:57:57;95653.44;;;21.59;82.97
4471;BME280;2248;42.698;23.292;2022-10-31T15:00:24;95644.00;;;21.42;83.89
4471;BME280;2248;42.698;23.292;2022-10-31T15:05:33;95649.25;;;21.12;85.50
4471;BME280;2248;42.698;23.292;2022-10-31T15:07:59;95639.50;;;20.93;85.67
4471;BME280;2248;42.698;23.292;2022-10-31T15:10:32;95648.03;;;20.85;85.86
4471;BME280;2248;42.698;23.292;2022-10-31T15:13:20;95657.00;;;20.67;86.75
4471;BME280;2248;42.698;23.292;2022-10-31T15:15:47;95640.47;;;20.49;87.76
4471;BME280;2248;42.698;23.292;2022-10-31T15:18:17;95659.56;;;20.43;89.31